Terminal Aerodrome Forecast
Issued by NWS

Home | Current Version | Previous Version | Text Only | Print | Product List | Glossary On
Versions: 1 2 3 4 5 6 7 8 9 10 11 12 13 14 15 16 17 18 19
956
FTUS41 KPBZ 262320
TAFBVI
TAF
KBVI 262320Z 2700/2724 20006KT P6SM SKC
     FM271300 22010KT P6SM OVC050
     FM271700 21012KT P6SM OVC015
      AMD NOT SKED 2702/2712=

USA.gov is the U.S. government's official web portal to all federal, state and local government web resources and services.